Time;durP1;ratioP1;P1;durP2;ratioP2;P2;SDS_P1;SDS_P2;PMS_P1;PMS_P2;Temp;Humidity;BMP_temperature;BMP_pressure;BME280_temperature;BME280_humidity;BME280_pressure;Samples;Min_cycle;Max_cycle;Signal;HPM_P1;HPM_P2
2021/10/01 00:01:16;;;;;;;2.20;2.03;;;22.40;65.00;;;;;;5124271;28;20028;-36
2021/10/01 00:03:42;;;;;;;1.88;1.77;;;22.40;65.20;;;;;;5123494;28;20073;-36
2021/10/01 00:06:09;;;;;;;1.98;1.70;;;22.40;65.30;;;;;;5124254;28;20023;-36
2021/10/01 00:08:35;;;;;;;1.92;1.83;;;22.40;65.50;;;;;;5124323;28;20047;-36
2021/10/01 00:11:02;;;;;;;2.13;1.98;;;22.40;65.70;;;;;;5112458;28;20046;-36
2021/10/01 00:13:28;;;;;;;1.90;1.80;;;22.40;65.90;;;;;;5103458;28;20024;-36
2021/10/01 00:15:54;;;;;;;1.92;1.83;;;22.50;66.10;;;;;;5103706;28;20103;-36
2021/10/01 00:18:20;;;;;;;1.98;1.88;;;22.50;66.40;;;;;;5103511;28;20435;-36
2021/10/01 00:20:46;;;;;;;2.08;1.98;;;22.50;66.50;;;;;;5103862;28;20073;-36
2021/10/01 00:23:13;;;;;;;1.83;1.73;;;22.50;66.40;;;;;;5103240;28;20032;-37
2021/10/01 00:25:39;;;;;;;1.73;1.63;;;22.50;66.20;;;;;;5106706;28;20124;-36
2021/10/01 00:28:05;;;;;;;2.00;1.80;;;22.50;66.20;;;;;;5123678;28;20030;-36
2021/10/01 00:30:31;;;;;;;2.33;2.13;;;22.50;66.20;;;;;;5123765;28;20046;-36
2021/10/01 00:32:58;;;;;;;1.73;1.63;;;22.50;66.30;;;;;;5123664;28;20073;-37
2021/10/01 00:35:25;;;;;;;2.00;1.80;;;22.50;66.30;;;;;;5123159;28;20049;-36
2021/10/01 00:37:51;;;;;;;2.13;2.00;;;22.50;66.40;;;;;;5123753;28;20027;-36
2021/10/01 00:40:17;;;;;;;2.22;2.10;;;22.50;66.50;;;;;;5123786;28;20032;-37
2021/10/01 00:42:43;;;;;;;1.90;1.80;;;22.50;66.50;;;;;;5123498;28;20023;-36
2021/10/01 00:45:09;;;;;;;2.17;1.98;;;22.60;66.60;;;;;;5123486;28;20303;-36
2021/10/01 00:47:36;;;;;;;2.45;2.25;;;22.60;66.60;;;;;;5123678;28;20032;-37
2021/10/01 00:50:03;;;;;;;1.98;1.88;;;22.60;66.60;;;;;;5105107;28;20035;-36
2021/10/01 00:52:29;;;;;;;2.17;2.08;;;22.60;66.70;;;;;;5119671;28;20035;-36
2021/10/01 00:54:55;;;;;;;2.30;2.10;;;22.60;66.90;;;;;;5104173;28;20035;-36
2021/10/01 00:57:21;;;;;;;2.42;2.22;;;22.60;67.00;;;;;;5105033;28;20096;-36
2021/10/01 00:59:47;;;;;;;2.22;2.13;;;22.60;67.10;;;;;;5123416;28;20024;-36
2021/10/01 01:02:13;;;;;;;2.45;2.25;;;22.60;67.10;;;;;;5123259;28;20047;-36
2021/10/01 01:04:42;;;;;;;2.03;1.92;;;22.60;67.10;;;;;;5123275;28;20035;-36
2021/10/01 01:07:32;;;;;;;2.08;1.98;;;22.60;67.10;;;;;;5105280;28;20599;-36
2021/10/01 01:10:02;;;;;;;2.63;2.42;;;22.60;67.20;;;;;;5123346;28;20032;-36
2021/10/01 01:12:39;;;;;;;2.63;2.42;;;22.60;67.30;;;;;;5123084;28;20508;-37
2021/10/01 01:15:10;;;;;;;2.63;2.42;;;22.60;67.30;;;;;;5123097;28;20061;-36
2021/10/01 01:18:04;;;;;;;2.33;2.17;;;22.60;67.30;;;;;;5088717;28;20034;-36
2021/10/01 01:20:50;;;;;;;2.70;2.50;;;22.70;67.50;;;;;;5120402;28;20039;-36
2021/10/01 01:23:25;;;;;;;2.72;2.53;;;22.60;67.40;;;;;;5122929;28;20024;-36
2021/10/01 01:26:04;;;;;;;2.58;2.38;;;22.70;67.40;;;;;;5122810;28;20039;-36
2021/10/01 01:28:30;;;;;;;2.70;2.50;;;22.70;67.50;;;;;;5088897;28;20078;-36
2021/10/01 01:31:06;;;;;;;2.58;2.38;;;22.70;67.50;;;;;;5122990;28;20028;-36
2021/10/01 01:33:32;;;;;;;2.72;2.53;;;22.70;67.50;;;;;;5105650;28;20019;-37
2021/10/01 01:35:58;;;;;;;2.53;2.33;;;22.70;67.40;;;;;;5084362;28;20016;-36
2021/10/01 01:38:33;;;;;;;2.73;2.53;;;22.70;67.50;;;;;;5067894;28;20043;-36
2021/10/01 01:41:00;;;;;;;2.80;2.60;;;22.70;67.50;;;;;;5084340;28;20030;-37
2021/10/01 01:43:26;;;;;;;2.67;2.47;;;22.70;67.60;;;;;;5083889;28;20024;-36
2021/10/01 01:45:52;;;;;;;2.58;2.38;;;22.70;67.70;;;;;;5067420;28;20845;-37
2021/10/01 01:48:18;;;;;;;2.70;2.50;;;22.70;67.90;;;;;;5084258;28;20115;-36
2021/10/01 01:50:44;;;;;;;2.60;2.40;;;22.70;68.10;;;;;;5084109;28;20032;-36
2021/10/01 01:53:12;;;;;;;2.92;2.72;;;22.70;68.10;;;;;;5072752;28;20116;-36
2021/10/01 01:55:38;;;;;;;2.60;2.40;;;22.70;68.00;;;;;;5122711;28;20028;-36
2021/10/01 01:58:04;;;;;;;2.15;2.05;;;22.70;68.00;;;;;;5122612;28;20413;-36
2021/10/01 02:00:30;;;;;;;2.90;2.50;;;22.70;68.00;;;;;;5087690;28;20028;-37
2021/10/01 02:02:57;;;;;;;2.70;2.50;;;22.70;68.00;;;;;;5104247;28;20024;-36
2021/10/01 02:05:23;;;;;;;2.65;2.45;;;22.70;68.00;;;;;;5104238;28;20087;-36
2021/10/01 02:07:49;;;;;;;2.72;2.53;;;22.70;68.00;;;;;;5104152;28;20028;-36
2021/10/01 02:10:16;;;;;;;2.67;2.47;;;22.70;68.00;;;;;;5087687;28;20020;-36
2021/10/01 02:12:44;;;;;;;2.92;2.72;;;22.70;68.00;;;;;;5104437;28;20031;-36
2021/10/01 02:15:10;;;;;;;2.60;2.40;;;22.70;67.90;;;;;;5087574;28;20044;-36
2021/10/01 02:17:37;;;;;;;2.63;2.42;;;22.70;68.00;;;;;;5087653;28;20052;-36
2021/10/01 02:20:04;;;;;;;2.75;2.55;;;22.70;68.00;;;;;;5103936;28;20031;-37
2021/10/01 02:22:30;;;;;;;3.08;2.78;;;22.70;68.10;;;;;;5104031;28;20102;-36
2021/10/01 02:24:56;;;;;;;3.10;2.80;;;22.70;68.00;;;;;;5104071;28;20099;-36
2021/10/01 02:27:35;;;;;;;2.67;2.47;;;22.70;68.00;;;;;;5106509;28;20034;-36
2021/10/01 02:30:12;;;;;;;2.60;2.40;;;22.70;67.90;;;;;;5108003;28;20603;-36
2021/10/01 02:32:41;;;;;;;2.72;2.53;;;22.70;68.00;;;;;;5126369;28;20024;-36
2021/10/01 02:35:07;;;;;;;3.17;2.90;;;22.70;68.00;;;;;;5107593;28;20099;-36
2021/10/01 02:37:34;;;;;;;2.83;2.63;;;22.70;68.20;;;;;;5091199;28;20042;-36
2021/10/01 02:40:01;;;;;;;2.87;2.67;;;22.70;68.20;;;;;;5126003;28;20489;-36
2021/10/01 02:42:27;;;;;;;2.58;2.40;;;22.70;68.20;;;;;;5108057;28;20023;-36
2021/10/01 02:44:54;;;;;;;2.78;2.55;;;22.70;68.20;;;;;;5107507;28;20051;-36
2021/10/01 02:47:20;;;;;;;3.10;2.70;;;22.70;68.10;;;;;;5122095;28;20554;-37
2021/10/01 02:49:47;;;;;;;3.13;2.92;;;22.70;68.10;;;;;;5087273;28;20036;-36
2021/10/01 02:52:33;;;;;;;3.03;2.83;;;22.70;68.20;;;;;;5087130;28;20032;-37
2021/10/01 02:55:39;;;;;;;3.40;3.10;;;22.70;68.20;;;;;;5087234;28;20044;-36
2021/10/01 02:58:08;;;;;;;3.25;2.90;;;22.70;68.30;;;;;;5085721;28;20078;-37
2021/10/01 03:00:35;;;;;;;2.80;2.60;;;22.70;68.30;;;;;;5105352;28;20468;-36
2021/10/01 03:03:03;;;;;;;3.08;2.80;;;22.70;68.20;;;;;;5105519;28;20120;-36
2021/10/01 03:05:29;;;;;;;3.33;2.80;;;22.70;68.20;;;;;;5095929;28;20043;-36
2021/10/01 03:07:55;;;;;;;3.03;2.83;;;22.70;68.10;;;;;;5107481;28;20041;-36
2021/10/01 03:10:22;;;;;;;2.90;2.70;;;22.70;68.10;;;;;;5107340;28;20020;-37
2021/10/01 03:12:48;;;;;;;3.55;2.88;;;22.70;68.20;;;;;;5107143;28;20034;-36
2021/10/01 03:15:14;;;;;;;3.25;3.05;;;22.70;68.10;;;;;;5125389;28;20110;-36
2021/10/01 03:17:41;;;;;;;3.63;3.33;;;22.70;68.20;;;;;;5107388;28;20037;-36
2021/10/01 03:20:07;;;;;;;3.00;2.80;;;22.70;68.30;;;;;;5090461;28;20552;-36
2021/10/01 03:22:33;;;;;;;3.65;3.35;;;22.70;68.30;;;;;;5090323;28;20039;-36
2021/10/01 03:25:00;;;;;;;4.88;3.30;;;22.70;68.50;;;;;;5106880;28;20115;-36
2021/10/01 03:27:31;;;;;;;3.03;2.83;;;22.70;68.60;;;;;;5125097;28;20024;-36
2021/10/01 03:29:59;;;;;;;3.00;2.70;;;22.70;68.50;;;;;;5125305;28;20036;-36
2021/10/01 03:32:26;;;;;;;3.05;2.85;;;22.70;68.50;;;;;;5125057;28;20024;-36
2021/10/01 03:34:55;;;;;;;3.03;2.83;;;22.70;68.50;;;;;;5124914;28;20028;-36
2021/10/01 03:37:21;;;;;;;3.17;2.97;;;22.70;68.50;;;;;;5106708;28;20028;-36
2021/10/01 03:40:00;;;;;;;3.50;3.20;;;22.70;68.50;;;;;;5106271;28;20023;-36
2021/10/01 03:42:26;;;;;;;3.30;3.10;;;22.70;68.40;;;;;;5125071;28;20027;-36
2021/10/01 03:44:52;;;;;;;3.60;3.30;;;22.70;68.30;;;;;;5124544;28;20051;-36
2021/10/01 03:47:18;;;;;;;3.50;3.17;;;22.70;68.20;;;;;;5125053;28;20046;-36
2021/10/01 03:49:45;;;;;;;3.35;3.13;;;22.70;68.20;;;;;;5124983;28;20027;-37
2021/10/01 03:52:12;;;;;;;2.70;2.50;;;22.70;68.10;;;;;;5124510;28;20103;-37
2021/10/01 03:54:40;;;;;;;3.30;3.00;;;22.60;68.00;;;;;;5124493;28;20036;-36
2021/10/01 03:57:06;;;;;;;3.13;2.92;;;22.60;68.00;;;;;;5106450;28;20031;-36
2021/10/01 03:59:32;;;;;;;3.08;2.88;;;22.70;68.00;;;;;;5124778;28;20028;-36
2021/10/01 04:01:59;;;;;;;3.55;3.25;;;22.60;68.10;;;;;;5124748;28;20024;-37
2021/10/01 04:04:25;;;;;;;3.38;3.17;;;22.60;68.00;;;;;;5124840;28;20054;-36
2021/10/01 04:06:51;;;;;;;3.50;3.20;;;22.60;68.00;;;;;;5124177;28;20057;-36
2021/10/01 04:09:17;;;;;;;3.60;3.30;;;22.60;68.10;;;;;;5124482;28;20863;-36
2021/10/01 04:11:43;;;;;;;3.33;3.13;;;22.60;68.10;;;;;;5124593;28;20094;-36
2021/10/01 04:14:09;;;;;;;2.47;1.93;;;22.60;68.10;;;;;;5124673;28;20077;-36
2021/10/01 04:16:36;;;;;;;3.10;2.90;;;22.60;68.10;;;;;;5124333;28;20023;-36
2021/10/01 04:19:02;;;;;;;3.65;3.35;;;22.60;68.10;;;;;;5124400;28;20023;-36
2021/10/01 04:21:28;;;;;;;3.00;2.78;;;22.60;68.10;;;;;;5121589;28;20032;-36
2021/10/01 04:23:54;;;;;;;3.40;3.10;;;22.60;68.00;;;;;;5123191;28;20055;-36
2021/10/01 04:26:20;;;;;;;3.30;3.00;;;22.60;68.00;;;;;;5123768;28;20020;-37
2021/10/01 04:28:46;;;;;;;3.25;3.00;;;22.60;68.00;;;;;;5124176;28;20484;-36
2021/10/01 04:31:13;;;;;;;2.90;2.70;;;22.60;68.00;;;;;;5124195;28;20460;-36
2021/10/01 04:33:43;;;;;;;3.37;3.13;;;22.60;67.90;;;;;;5124247;28;20032;-37
2021/10/01 04:36:11;;;;;;;3.35;3.05;;;22.60;67.90;;;;;;5123716;28;20032;-37
2021/10/01 04:38:37;;;;;;;3.33;3.03;;;22.60;67.90;;;;;;5124133;28;20027;-37
2021/10/01 04:41:04;;;;;;;3.42;3.13;;;22.50;67.80;;;;;;5123944;28;20019;-36
2021/10/01 04:43:30;;;;;;;3.40;3.10;;;22.50;67.80;;;;;;5105642;28;20028;-37
2021/10/01 04:45:56;;;;;;;3.40;3.10;;;22.50;67.80;;;;;;5123817;28;20118;-36
2021/10/01 04:48:22;;;;;;;3.55;3.25;;;22.50;67.80;;;;;;5123633;28;20032;-36
2021/10/01 04:50:48;;;;;;;3.15;2.95;;;22.50;67.90;;;;;;5123288;28;20027;-37
2021/10/01 04:53:14;;;;;;;3.95;3.38;;;22.50;67.90;;;;;;5123402;28;20588;-36
2021/10/01 04:55:41;;;;;;;3.72;3.13;;;22.50;67.80;;;;;;5123402;28;20052;-36
2021/10/01 04:58:07;;;;;;;3.63;3.35;;;22.50;67.90;;;;;;5105019;28;20398;-36
2021/10/01 05:00:33;;;;;;;3.43;3.03;;;22.50;67.90;;;;;;5123584;28;20039;-36
2021/10/01 05:03:00;;;;;;;3.65;3.35;;;22.50;67.90;;;;;;5123546;28;20027;-37
2021/10/01 05:05:26;;;;;;;3.40;3.08;;;22.50;67.80;;;;;;5123534;28;20101;-36
2021/10/01 05:07:52;;;;;;;3.65;3.35;;;22.50;67.80;;;;;;5123276;28;20027;-36
2021/10/01 05:10:18;;;;;;;3.72;3.42;;;22.50;67.80;;;;;;5123632;28;20040;-36
2021/10/01 05:12:45;;;;;;;3.83;3.53;;;22.50;67.80;;;;;;5123490;28;20099;-36
2021/10/01 05:15:12;;;;;;;3.45;3.15;;;22.50;67.80;;;;;;5123325;28;20031;-36
2021/10/01 05:17:39;;;;;;;3.65;3.30;;;22.50;67.80;;;;;;5123101;28;20034;-36
2021/10/01 05:20:07;;;;;;;3.45;3.15;;;22.40;67.80;;;;;;5123252;28;20031;-36
2021/10/01 05:22:33;;;;;;;3.75;3.45;;;22.40;67.80;;;;;;5122971;28;20092;-36
2021/10/01 05:25:00;;;;;;;3.63;3.33;;;22.40;67.80;;;;;;5123365;28;20043;-36
2021/10/01 05:27:26;;;;;;;3.80;3.53;;;22.40;67.90;;;;;;5122902;28;20031;-36
2021/10/01 05:29:52;;;;;;;3.90;3.60;;;22.40;67.80;;;;;;5123331;28;20027;-36
2021/10/01 05:32:18;;;;;;;3.80;3.50;;;22.40;67.90;;;;;;5123296;28;20024;-36
2021/10/01 05:34:45;;;;;;;3.72;3.42;;;22.40;67.90;;;;;;5123036;28;20028;-36
2021/10/01 05:37:11;;;;;;;3.90;3.60;;;22.40;67.90;;;;;;5122663;28;20032;-36
2021/10/01 05:39:37;;;;;;;3.45;3.13;;;22.40;67.90;;;;;;5122808;28;20038;-36
2021/10/01 05:42:04;;;;;;;3.80;3.50;;;22.40;67.90;;;;;;5123034;28;20024;-37
2021/10/01 05:44:30;;;;;;;3.80;3.50;;;22.40;68.00;;;;;;5104966;28;20028;-36
2021/10/01 05:47:00;;;;;;;3.53;3.22;;;22.40;68.00;;;;;;5122898;28;20024;-37
2021/10/01 05:49:32;;;;;;;3.67;3.38;;;22.40;68.00;;;;;;5122865;28;20027;-36
2021/10/01 05:52:13;;;;;;;3.63;3.33;;;22.40;68.00;;;;;;5122769;28;20030;-36
2021/10/01 05:54:40;;;;;;;3.58;3.28;;;22.40;68.10;;;;;;5122830;28;20140;-36
2021/10/01 05:57:07;;;;;;;3.80;3.50;;;22.40;68.10;;;;;;5122722;28;20034;-36
2021/10/01 05:59:33;;;;;;;;;;;22.30;68.00;;;;;;5105082;28;20023;-36
2021/10/01 06:01:59;;;;;;;3.55;3.30;;;22.30;68.00;;;;;;5109556;28;20371;-36
2021/10/01 06:04:25;;;;;;;3.60;3.30;;;22.30;68.10;;;;;;5106389;28;20043;-36
2021/10/01 06:06:51;;;;;;;3.38;3.13;;;22.30;68.00;;;;;;5106066;28;20032;-37
2021/10/01 06:09:19;;;;;;;3.60;3.30;;;22.30;68.10;;;;;;5106387;28;20050;-36
2021/10/01 06:11:46;;;;;;;3.80;3.50;;;22.30;68.10;;;;;;5106546;28;20032;-36
2021/10/01 06:14:12;;;;;;;3.87;3.57;;;22.30;68.10;;;;;;5106337;28;20031;-36
2021/10/01 06:16:38;;;;;;;3.80;3.50;;;22.30;68.20;;;;;;5105906;28;20027;-36
2021/10/01 06:19:05;;;;;;;3.70;3.40;;;22.30;68.20;;;;;;5121487;28;20088;-36
2021/10/01 06:21:31;;;;;;;3.70;3.40;;;22.30;68.20;;;;;;5126395;28;20260;-37
2021/10/01 06:23:57;;;;;;;3.85;3.53;;;22.30;68.20;;;;;;5126324;28;20045;-36
2021/10/01 06:26:23;;;;;;;4.07;3.50;;;22.30;68.30;;;;;;5126360;28;20716;-36
2021/10/01 06:28:49;;;;;;;3.97;3.67;;;22.20;68.20;;;;;;5126223;28;20027;-36
2021/10/01 06:31:15;;;;;;;4.10;3.70;;;22.20;68.20;;;;;;5126298;28;20032;-36
2021/10/01 06:33:43;;;;;;;3.85;3.47;;;22.20;68.20;;;;;;5126212;28;20062;-37
2021/10/01 06:36:08;;;;;;;;;;;22.20;68.30;;;;;;5126617;28;20036;-37
2021/10/01 06:38:35;;;;;;;4.15;3.85;;;22.20;68.30;;;;;;5125957;28;19907;-36
2021/10/01 06:41:01;;;;;;;3.95;3.65;;;22.20;68.30;;;;;;5126204;28;20032;-36
2021/10/01 06:43:28;;;;;;;4.03;3.63;;;22.20;68.40;;;;;;5126140;28;20070;-36
2021/10/01 06:45:56;;;;;;;3.85;3.55;;;22.20;68.40;;;;;;5107763;28;20104;-36
2021/10/01 06:51:29;;;;;;;3.50;3.28;;;22.20;68.40;;;;;;5120187;28;20026;-36
2021/10/01 08:20:46;;;;;;;4.43;4.03;;;21.90;69.00;;;;;;5106339;28;20057;-36
2021/10/01 08:23:12;;;;;;;4.30;3.90;;;21.90;69.00;;;;;;5103361;28;20031;-36
2021/10/01 08:25:38;;;;;;;4.22;3.83;;;21.90;69.00;;;;;;5105972;28;20061;-36
2021/10/01 08:28:05;;;;;;;4.32;3.92;;;21.80;69.00;;;;;;5123882;28;20031;-36
2021/10/01 08:30:31;;;;;;;4.28;3.97;;;21.90;69.10;;;;;;5123764;28;20431;-36
2021/10/01 08:32:57;;;;;;;4.45;4.05;;;21.80;69.00;;;;;;5123865;28;20023;-36
2021/10/01 08:35:24;;;;;;;4.53;3.80;;;21.80;69.10;;;;;;5123699;28;20028;-36
2021/10/01 08:37:54;;;;;;;4.32;4.00;;;21.90;69.20;;;;;;5123724;28;20020;-36
2021/10/01 08:40:21;;;;;;;4.53;4.13;;;21.80;69.10;;;;;;5105432;28;20044;-36
2021/10/01 08:42:48;;;;;;;4.70;4.30;;;21.80;69.10;;;;;;5123534;28;20024;-36
2021/10/01 08:45:15;;;;;;;4.18;3.80;;;21.80;69.20;;;;;;5121725;28;20765;-36
2021/10/01 08:47:41;;;;;;;4.35;4.00;;;21.80;69.20;;;;;;5123356;28;20016;-36
2021/10/01 08:50:09;;;;;;;3.97;3.63;;;21.80;69.20;;;;;;5123252;28;20035;-36
2021/10/01 08:52:35;;;;;;;4.05;3.75;;;21.80;69.20;;;;;;5122995;28;20036;-36
2021/10/01 08:55:02;;;;;;;4.30;3.90;;;21.80;69.30;;;;;;5122438;28;20042;-36
2021/10/01 08:57:29;;;;;;;4.22;3.92;;;21.80;69.30;;;;;;5141165;28;20027;-37
2021/10/01 08:59:57;;;;;;;4.57;4.18;;;21.70;69.30;;;;;;5142870;28;20062;-36
2021/10/01 09:02:23;;;;;;;4.50;4.10;;;21.70;69.30;;;;;;5143050;28;20050;-39
2021/10/01 09:04:49;;;;;;;5.97;4.30;;;21.80;69.40;;;;;;5143034;28;20112;-36
2021/10/01 09:07:18;;;;;;;4.07;3.77;;;21.70;69.30;;;;;;5142743;28;20019;-36
2021/10/01 09:09:44;;;;;;;4.07;3.78;;;21.70;69.40;;;;;;5142670;28;20267;-36
2021/10/01 09:12:14;;;;;;;4.32;4.00;;;21.70;69.30;;;;;;5142918;28;20031;-36
2021/10/01 09:14:58;;;;;;;4.55;4.18;;;21.70;69.40;;;;;;5142917;28;20042;-36
2021/10/01 09:17:29;;;;;;;5.00;4.38;;;21.70;69.40;;;;;;5142887;28;20030;-36
2021/10/01 09:19:56;;;;;;;4.63;4.22;;;21.70;69.50;;;;;;5122786;28;20091;-37
2021/10/01 09:22:27;;;;;;;4.55;4.15;;;21.70;69.50;;;;;;5122089;28;20036;-36
2021/10/01 09:25:14;;;;;;;4.75;4.35;;;21.70;69.50;;;;;;5121886;28;20047;-36
2021/10/01 09:27:41;;;;;;;4.18;3.88;;;21.70;69.50;;;;;;5122058;28;20030;-36
2021/10/01 09:30:08;;;;;;;4.93;4.43;;;21.70;69.60;;;;;;5121964;28;20032;-36
2021/10/01 09:32:35;;;;;;;4.28;3.95;;;21.70;69.60;;;;;;5122404;28;20039;-36
2021/10/01 09:35:10;;;;;;;4.47;3.97;;;21.70;69.60;;;;;;5121776;28;20054;-36
2021/10/01 09:37:36;;;;;;;4.50;4.10;;;21.70;69.60;;;;;;5121148;28;20042;-36
2021/10/01 09:40:02;;;;;;;4.28;3.97;;;21.70;69.70;;;;;;5121566;28;20024;-36
2021/10/01 09:42:30;;;;;;;4.85;4.45;;;21.70;69.70;;;;;;5121969;28;20028;-36
2021/10/01 09:45:01;;;;;;;4.47;4.10;;;21.60;69.60;;;;;;5121807;28;20095;-37
2021/10/01 09:47:31;;;;;;;4.78;4.38;;;21.70;69.70;;;;;;5122031;28;20114;-36
2021/10/01 09:50:01;;;;;;;4.93;4.53;;;21.60;69.60;;;;;;5121481;28;20050;-36
2021/10/01 09:52:47;;;;;;;4.33;4.00;;;21.60;69.70;;;;;;5047148;28;2103509;-37
2021/10/01 09:55:15;;;;;;;5.95;4.20;;;21.60;69.70;;;;;;5122566;28;20097;-36
2021/10/01 09:58:16;;;;;;;4.82;4.43;;;21.60;69.70;;;;;;5104249;28;20087;-36
2021/10/01 10:00:47;;;;;;;4.30;4.00;;;21.60;70.50;;;;;;5122473;28;20058;-36
2021/10/01 10:03:22;;;;;;;4.07;3.78;;;21.60;69.80;;;;;;5122829;28;20027;-37
2021/10/01 10:05:58;;;;;;;4.97;4.43;;;21.60;69.80;;;;;;5122573;28;20028;-36
2021/10/01 10:08:35;;;;;;;4.43;3.78;;;21.60;69.90;;;;;;5121875;28;20378;-36
2021/10/01 10:11:03;;;;;;;4.80;4.40;;;21.60;69.90;;;;;;5122557;28;20122;-36
2021/10/01 10:13:39;;;;;;;4.28;3.97;;;21.60;69.90;;;;;;5122604;28;20059;-36
2021/10/01 10:16:26;;;;;;;4.68;4.30;;;21.60;69.90;;;;;;5122545;28;20081;-36
2021/10/01 10:19:03;;;;;;;4.75;4.35;;;21.50;69.90;;;;;;5122129;28;20503;-36
2021/10/01 10:21:30;;;;;;;4.40;4.00;;;21.50;69.90;;;;;;5122390;28;20027;-36
2021/10/01 10:23:56;;;;;;;4.38;4.00;;;21.50;69.90;;;;;;5122496;28;20085;-36
2021/10/01 10:26:24;;;;;;;4.70;4.30;;;21.50;69.90;;;;;;5122243;28;20031;-36
2021/10/01 10:28:51;;;;;;;5.07;4.15;;;21.50;69.90;;;;;;5086945;28;20019;-36
2021/10/01 10:31:17;;;;;;;4.20;3.90;;;21.50;69.90;;;;;;5087652;28;20701;-36
2021/10/01 10:33:45;;;;;;;5.00;4.47;;;21.50;70.00;;;;;;5122266;28;20035;-36
2021/10/01 10:36:38;;;;;;;4.70;4.28;;;21.50;70.00;;;;;;5104184;28;20027;-36
2021/10/01 10:39:15;;;;;;;4.88;4.47;;;21.50;70.00;;;;;;5117136;28;20059;-36
2021/10/01 10:41:45;;;;;;;4.70;4.30;;;21.50;70.00;;;;;;5122264;28;20196;-36
2021/10/01 10:44:13;;;;;;;5.25;4.75;;;21.50;70.00;;;;;;5122024;28;20043;-36
2021/10/01 10:46:46;;;;;;;4.88;4.45;;;21.50;70.10;;;;;;5087410;28;20047;-36
2021/10/01 10:49:24;;;;;;;4.68;4.28;;;21.40;70.10;;;;;;5125463;28;20030;-36
2021/10/01 10:52:02;;;;;;;4.80;4.40;;;21.50;70.10;;;;;;5125328;28;20577;-37
2021/10/01 10:54:30;;;;;;;4.15;3.80;;;21.40;70.10;;;;;;5125527;28;20052;-36
2021/10/01 10:57:18;;;;;;;4.45;4.05;;;21.40;70.10;;;;;;5125616;28;20027;-36
2021/10/01 10:59:44;;;;;;;4.70;4.30;;;21.40;70.10;;;;;;5125406;28;20023;-36
2021/10/01 11:02:32;;;;;;;3.97;3.65;;;21.40;70.20;;;;;;5125676;28;20107;-36
2021/10/01 11:05:18;;;;;;;4.35;4.05;;;21.40;70.20;;;;;;5125663;28;20038;-36
2021/10/01 11:07:48;;;;;;;4.47;4.07;;;21.40;70.20;;;;;;5125215;28;20059;-36
2021/10/01 11:10:37;;;;;;;5.88;4.55;;;21.40;70.30;;;;;;5125145;28;20804;-36
2021/10/01 11:13:18;;;;;;;4.95;4.30;;;21.40;70.30;;;;;;5125527;28;20468;-37
2021/10/01 11:16:12;;;;;;;5.00;4.60;;;21.40;70.30;;;;;;5125425;28;20020;-36
2021/10/01 11:18:47;;;;;;;4.78;4.30;;;21.40;70.40;;;;;;5125333;28;20058;-36
2021/10/01 11:21:35;;;;;;;4.60;4.20;;;21.40;70.30;;;;;;5125098;28;20020;-37
2021/10/01 11:24:18;;;;;;;4.90;4.50;;;21.40;70.30;;;;;;5124917;28;20039;-36
2021/10/01 11:26:45;;;;;;;5.30;4.28;;;21.40;70.30;;;;;;5124856;28;20042;-36
2021/10/01 11:29:28;;;;;;;4.82;4.45;;;21.30;70.30;;;;;;5125115;28;20027;-36
2021/10/01 11:31:55;;;;;;;4.82;4.43;;;21.30;70.30;;;;;;5125146;28;20039;-36
2021/10/01 11:34:49;;;;;;;5.10;4.47;;;21.30;70.30;;;;;;5125124;28;20035;-37
2021/10/01 11:37:38;;;;;;;4.60;4.20;;;21.30;70.50;;;;;;5124697;28;20027;-36
2021/10/01 11:40:11;;;;;;;4.30;3.90;;;21.30;70.40;;;;;;5124640;28;20023;-37
2021/10/01 11:42:42;;;;;;;4.32;3.92;;;21.30;70.40;;;;;;5124820;28;20032;-36
2021/10/01 11:45:39;;;;;;;4.88;4.47;;;21.30;70.40;;;;;;5124918;28;20046;-37
2021/10/01 11:48:07;;;;;;;4.70;4.28;;;21.30;70.40;;;;;;5124632;28;20032;-36
2021/10/01 11:50:51;;;;;;;4.82;4.43;;;21.30;70.40;;;;;;5124376;28;20024;-36
2021/10/01 11:53:22;;;;;;;5.20;4.68;;;21.30;70.50;;;;;;5124423;28;20060;-36
2021/10/01 11:55:54;;;;;;;4.82;4.43;;;21.30;70.50;;;;;;5124546;28;20031;-36
2021/10/01 11:58:20;;;;;;;4.60;4.30;;;21.30;70.50;;;;;;5124346;28;20030;-36
2021/10/01 12:00:46;;;;;;;4.80;4.40;;;21.30;70.60;;;;;;5123915;28;20110;-36
2021/10/01 12:03:14;;;;;;;4.97;4.57;;;21.30;70.60;;;;;;5106138;28;20034;-36
2021/10/01 12:05:40;;;;;;;4.93;4.53;;;21.30;70.60;;;;;;5124290;28;20035;-36
2021/10/01 12:08:08;;;;;;;4.63;4.22;;;21.20;70.60;;;;;;5124260;28;20049;-36
2021/10/01 12:10:41;;;;;;;4.57;4.20;;;21.20;70.60;;;;;;5124233;28;20148;-36
2021/10/01 12:13:18;;;;;;;4.78;4.30;;;21.20;70.70;;;;;;5106600;28;20016;-36
2021/10/01 12:15:55;;;;;;;4.88;4.47;;;21.20;70.70;;;;;;5124272;28;20031;-37
2021/10/01 12:18:34;;;;;;;4.63;4.22;;;21.20;70.60;;;;;;5123828;28;20142;-36
2021/10/01 12:21:11;;;;;;;4.80;4.40;;;21.20;70.60;;;;;;5123907;28;20790;-37
2021/10/01 12:23:44;;;;;;;5.40;4.90;;;21.20;70.60;;;;;;5123859;28;20027;-36
2021/10/01 12:26:14;;;;;;;4.88;4.47;;;21.20;70.70;;;;;;5123468;28;20122;-36
2021/10/01 12:28:40;;;;;;;4.50;4.10;;;21.20;70.70;;;;;;5114670;28;20109;-36
2021/10/01 12:31:06;;;;;;;5.20;4.65;;;21.20;70.70;;;;;;5123688;28;20367;-36
2021/10/01 12:33:34;;;;;;;4.85;4.38;;;21.20;70.70;;;;;;5105655;28;20080;-36
2021/10/01 12:35:59;;;;;;;;;;;21.20;70.70;;;;;;5106302;28;20030;-36
2021/10/01 12:38:26;;;;;;;5.03;4.63;;;21.20;70.80;;;;;;5105125;28;19903;-36
2021/10/01 12:41:11;;;;;;;4.43;4.03;;;21.20;70.70;;;;;;5105224;28;20028;-36
2021/10/01 12:43:44;;;;;;;5.10;4.60;;;21.20;70.80;;;;;;5123952;28;20035;-36
2021/10/01 12:46:10;;;;;;;4.90;4.50;;;21.10;70.80;;;;;;5123486;28;20044;-36
2021/10/01 12:48:36;;;;;;;5.03;4.63;;;21.10;70.80;;;;;;5105220;28;20019;-36
2021/10/01 12:51:20;;;;;;;5.07;4.43;;;21.10;70.80;;;;;;5123347;28;20035;-36
2021/10/01 12:53:46;;;;;;;4.57;4.25;;;21.10;71.50;;;;;;5090501;28;20055;-36
2021/10/01 12:56:18;;;;;;;4.65;4.25;;;21.10;70.70;;;;;;5120535;28;20454;-37
2021/10/01 12:58:45;;;;;;;4.43;4.10;;;21.10;70.80;;;;;;5123493;28;20083;-36
2021/10/01 13:01:19;;;;;;;5.20;4.80;;;21.10;71.50;;;;;;5122733;28;20054;-36
2021/10/01 13:03:47;;;;;;;4.55;4.15;;;21.10;71.50;;;;;;5123286;28;20055;-36
2021/10/01 13:06:29;;;;;;;4.90;4.50;;;21.10;70.80;;;;;;5123275;28;20032;-36
2021/10/01 13:08:56;;;;;;;4.75;4.35;;;21.10;70.80;;;;;;5123007;28;20039;-36
2021/10/01 13:11:22;;;;;;;4.85;4.32;;;21.10;70.80;;;;;;5122429;28;20031;-37
2021/10/01 13:13:48;;;;;;;4.90;4.50;;;21.10;70.80;;;;;;5104832;28;20057;-36
2021/10/01 13:16:23;;;;;;;4.50;4.10;;;21.10;70.80;;;;;;5123046;28;20035;-36
2021/10/01 13:19:02;;;;;;;4.43;4.03;;;21.10;70.80;;;;;;5123067;28;20110;-36
2021/10/01 13:21:28;;;;;;;4.70;4.30;;;21.10;70.90;;;;;;5122910;28;20043;-36
2021/10/01 13:24:00;;;;;;;5.18;4.72;;;21.10;70.90;;;;;;5122864;28;20016;-36
2021/10/01 13:26:46;;;;;;;4.57;4.18;;;21.10;70.90;;;;;;5122941;28;20039;-36
2021/10/01 13:29:12;;;;;;;4.85;4.40;;;21.10;70.90;;;;;;5122758;28;20035;-36
2021/10/01 13:31:41;;;;;;;5.22;4.72;;;21.10;70.90;;;;;;5122731;28;20035;-36
2021/10/01 13:34:11;;;;;;;5.10;4.60;;;21.10;70.90;;;;;;5122935;28;20023;-36
2021/10/01 13:36:37;;;;;;;4.68;4.30;;;21.10;70.90;;;;;;5121964;28;20038;-37
2021/10/01 13:39:03;;;;;;;4.60;4.20;;;21.10;70.80;;;;;;5122603;28;20028;-36
2021/10/01 13:41:29;;;;;;;4.93;4.53;;;21.10;70.80;;;;;;5116835;28;20038;-36
2021/10/01 13:43:56;;;;;;;4.72;4.32;;;21.10;70.80;;;;;;5122746;28;20035;-36
2021/10/01 13:46:22;;;;;;;4.97;4.50;;;21.10;70.90;;;;;;5122640;28;20039;-36
2021/10/01 13:48:49;;;;;;;4.65;4.25;;;21.10;70.80;;;;;;5121615;28;20031;-36
2021/10/01 13:51:15;;;;;;;5.00;4.50;;;21.10;70.80;;;;;;5122767;28;20106;-36
2021/10/01 13:53:41;;;;;;;5.00;4.60;;;21.10;70.80;;;;;;5104246;28;20047;-36
2021/10/01 13:56:07;;;;;;;4.93;4.45;;;21.10;70.80;;;;;;5122449;28;20427;-36
2021/10/01 13:58:34;;;;;;;4.90;4.47;;;21.10;70.80;;;;;;5122753;28;20104;-36
2021/10/01 14:01:00;;;;;;;4.40;4.10;;;21.10;70.80;;;;;;5122680;28;20077;-36
2021/10/01 14:03:26;;;;;;;5.17;4.67;;;21.10;70.70;;;;;;5122359;28;20038;-36
2021/10/01 14:05:53;;;;;;;5.03;4.55;;;21.10;70.70;;;;;;5122730;28;20042;-36
2021/10/01 14:08:19;;;;;;;5.20;4.70;;;21.10;70.70;;;;;;5122535;28;20040;-36
2021/10/01 14:10:45;;;;;;;5.13;4.45;;;21.10;70.70;;;;;;5122536;28;20081;-36
2021/10/01 14:13:12;;;;;;;5.25;4.60;;;21.20;70.70;;;;;;5122193;28;20032;-36
2021/10/01 14:15:42;;;;;;;5.00;4.50;;;21.20;70.70;;;;;;5122547;28;20031;-36
2021/10/01 14:18:08;;;;;;;5.43;4.97;;;21.20;70.70;;;;;;5122531;28;20260;-36
2021/10/01 14:20:36;;;;;;;4.90;4.37;;;21.20;70.70;;;;;;5122455;28;20065;-36
2021/10/01 14:23:02;;;;;;;4.65;4.25;;;21.20;70.70;;;;;;5124218;28;20039;-36
2021/10/01 14:25:28;;;;;;;4.72;4.32;;;21.20;70.80;;;;;;5126167;28;20039;-36
2021/10/01 14:27:57;;;;;;;5.30;4.90;;;21.20;70.80;;;;;;5126158;28;20023;-36
2021/10/01 14:30:29;;;;;;;6.18;4.95;;;21.20;70.80;;;;;;5126396;28;20114;-36